Blue Water Estates, Kentucky
Current Conditions -  °F | °C
As of 12:58 AM on Saturday 25 Oct 2014 (Local Time) from KHOP Reporting Station
Clear Clear  
Wind Chill: 50°   Ceiling: Unl
Heat Index: 50°   Visibility: 10mi
Dew Point: 50°   Wind: 1mph
Humidity: 100%   Direction: 220°SW
Pressure: 30.08"   Gusts: NA
Location:  36.8031°N, 87.8159°W
Report Text: KHOP 250558Z AUTO 22001KT 10SM CLR 10/10 A3008 RMK AO2 SLP186 T01020102 10156 20099 402080049 55002
Loading
Personal Weather Stations






























Interactive Weather Map
Tropical Storm Tracking
New forecast layout! Learn more

10-Day Weather Forecast

Advertisements
Track Severe Weather on mobile